sensor_id;sensor_type;location;lat;lon;timestamp;P1;durP1;ratioP1;P2;durP2;ratioP2
32501;SDS011;18952;52.516;13.460;2023-07-31T06:04:17;11.18;;;4.60;;
32501;SDS011;18952;52.516;13.460;2023-07-31T06:06:46;11.27;;;5.10;;
32501;SDS011;18952;52.516;13.460;2023-07-31T06:09:13;10.75;;;4.28;;
32501;SDS011;18952;52.516;13.460;2023-07-31T06:11:40;10.13;;;3.85;;
32501;SDS011;18952;52.516;13.460;2023-07-31T06:14:06;11.48;;;5.03;;
32501;SDS011;18952;52.516;13.460;2023-07-31T06:16:33;15.00;;;4.50;;
32501;SDS011;18952;52.516;13.460;2023-07-31T06:19:00;8.80;;;4.18;;
32501;SDS011;18952;52.516;13.460;2023-07-31T06:21:27;7.32;;;3.88;;
32501;SDS011;18952;52.516;13.460;2023-07-31T06:23:54;11.70;;;4.43;;
32501;SDS011;18952;52.516;13.460;2023-07-31T06:26:23;8.93;;;4.38;;
32501;SDS011;18952;52.516;13.460;2023-07-31T06:28:50;11.52;;;3.88;;
32501;SDS011;18952;52.516;13.460;2023-07-31T06:31:17;12.35;;;4.10;;
32501;SDS011;18952;52.516;13.460;2023-07-31T06:33:44;9.48;;;4.18;;
32501;SDS011;18952;52.516;13.460;2023-07-31T06:36:10;7.50;;;3.97;;
32501;SDS011;18952;52.516;13.460;2023-07-31T06:38:37;8.13;;;4.20;;
32501;SDS011;18952;52.516;13.460;2023-07-31T06:41:05;12.05;;;4.68;;
32501;SDS011;18952;52.516;13.460;2023-07-31T06:43:32;9.40;;;4.57;;
32501;SDS011;18952;52.516;13.460;2023-07-31T06:46:04;8.18;;;4.22;;
32501;SDS011;18952;52.516;13.460;2023-07-31T06:48:34;7.65;;;3.92;;
32501;SDS011;18952;52.516;13.460;2023-07-31T06:51:02;7.20;;;3.83;;
32501;SDS011;18952;52.516;13.460;2023-07-31T06:53:29;8.38;;;3.70;;
32501;SDS011;18952;52.516;13.460;2023-07-31T06:55:55;7.50;;;3.92;;
32501;SDS011;18952;52.516;13.460;2023-07-31T06:58:22;10.80;;;3.70;;
32501;SDS011;18952;52.516;13.460;2023-07-31T07:00:49;6.90;;;3.60;;
32501;SDS011;18952;52.516;13.460;2023-07-31T07:03:18;8.20;;;4.00;;
32501;SDS011;18952;52.516;13.460;2023-07-31T07:05:45;10.05;;;3.80;;
32501;SDS011;18952;52.516;13.460;2023-07-31T07:08:11;8.48;;;3.53;;
32501;SDS011;18952;52.516;13.460;2023-07-31T07:10:38;10.52;;;3.22;;
32501;SDS011;18952;52.516;13.460;2023-07-31T07:13:05;11.93;;;3.65;;
32501;SDS011;18952;52.516;13.460;2023-07-31T07:15:32;10.35;;;3.70;;
32501;SDS011;18952;52.516;13.460;2023-07-31T07:17:58;14.63;;;3.80;;
32501;SDS011;18952;52.516;13.460;2023-07-31T07:20:25;8.40;;;3.80;;
32501;SDS011;18952;52.516;13.460;2023-07-31T07:22:52;8.75;;;3.58;;
32501;SDS011;18952;52.516;13.460;2023-07-31T07:25:19;9.40;;;3.53;;
32501;SDS011;18952;52.516;13.460;2023-07-31T07:27:46;9.85;;;3.58;;
32501;SDS011;18952;52.516;13.460;2023-07-31T07:30:13;11.50;;;4.05;;
32501;SDS011;18952;52.516;13.460;2023-07-31T07:32:39;9.13;;;3.65;;
32501;SDS011;18952;52.516;13.460;2023-07-31T07:35:06;7.85;;;3.70;;
32501;SDS011;18952;52.516;13.460;2023-07-31T07:37:34;5.40;;;3.50;;
32501;SDS011;18952;52.516;13.460;2023-07-31T07:40:00;16.83;;;3.75;;
32501;SDS011;18952;52.516;13.460;2023-07-31T07:42:27;7.95;;;3.85;;
32501;SDS011;18952;52.516;13.460;2023-07-31T07:44:54;8.40;;;3.53;;
32501;SDS011;18952;52.516;13.460;2023-07-31T07:47:21;6.68;;;3.75;;
32501;SDS011;18952;52.516;13.460;2023-07-31T07:49:48;6.10;;;3.20;;
32501;SDS011;18952;52.516;13.460;2023-07-31T07:52:18;5.47;;;3.03;;
32501;SDS011;18952;52.516;13.460;2023-07-31T07:54:45;5.68;;;3.75;;
32501;SDS011;18952;52.516;13.460;2023-07-31T07:57:12;9.93;;;4.05;;
32501;SDS011;18952;52.516;13.460;2023-07-31T07:59:39;8.10;;;3.65;;
32501;SDS011;18952;52.516;13.460;2023-07-31T08:02:06;8.45;;;4.28;;
32501;SDS011;18952;52.516;13.460;2023-07-31T08:04:33;10.98;;;3.83;;
32501;SDS011;18952;52.516;13.460;2023-07-31T08:07:00;9.20;;;3.30;;
32501;SDS011;18952;52.516;13.460;2023-07-31T08:09:27;7.28;;;2.78;;
32501;SDS011;18952;52.516;13.460;2023-07-31T08:11:54;5.43;;;3.00;;
32501;SDS011;18952;52.516;13.460;2023-07-31T08:14:21;5.28;;;2.83;;
32501;SDS011;18952;52.516;13.460;2023-07-31T08:16:47;9.40;;;2.83;;
32501;SDS011;18952;52.516;13.460;2023-07-31T08:19:14;4.93;;;2.90;;
32501;SDS011;18952;52.516;13.460;2023-07-31T08:21:41;5.22;;;2.90;;
32501;SDS011;18952;52.516;13.460;2023-07-31T08:24:08;3.90;;;2.50;;
32501;SDS011;18952;52.516;13.460;2023-07-31T08:26:35;4.00;;;2.40;;
32501;SDS011;18952;52.516;13.460;2023-07-31T08:29:01;5.15;;;2.78;;
32501;SDS011;18952;52.516;13.460;2023-07-31T08:31:28;3.60;;;2.50;;
32501;SDS011;18952;52.516;13.460;2023-07-31T08:33:55;3.40;;;2.20;;
32501;SDS011;18952;52.516;13.460;2023-07-31T08:36:22;6.68;;;2.70;;
32501;SDS011;18952;52.516;13.460;2023-07-31T08:38:49;4.68;;;2.58;;
32501;SDS011;18952;52.516;13.460;2023-07-31T08:41:16;4.10;;;2.58;;
32501;SDS011;18952;52.516;13.460;2023-07-31T08:43:43;6.07;;;3.00;;
32501;SDS011;18952;52.516;13.460;2023-07-31T08:46:15;4.57;;;2.35;;
32501;SDS011;18952;52.516;13.460;2023-07-31T08:48:42;3.75;;;2.60;;
32501;SDS011;18952;52.516;13.460;2023-07-31T08:51:09;6.72;;;2.53;;
32501;SDS011;18952;52.516;13.460;2023-07-31T08:53:36;5.78;;;2.60;;
32501;SDS011;18952;52.516;13.460;2023-07-31T08:56:03;5.78;;;2.70;;
32501;SDS011;18952;52.516;13.460;2023-07-31T08:58:32;5.95;;;2.83;;
32501;SDS011;18952;52.516;13.460;2023-07-31T09:01:01;9.15;;;2.92;;
32501;SDS011;18952;52.516;13.460;2023-07-31T09:03:32;6.85;;;2.58;;
32501;SDS011;18952;52.516;13.460;2023-07-31T09:06:00;4.53;;;2.50;;
32501;SDS011;18952;52.516;13.460;2023-07-31T09:08:29;2.65;;;2.17;;
32501;SDS011;18952;52.516;13.460;2023-07-31T09:10:59;6.65;;;2.72;;
32501;SDS011;18952;52.516;13.460;2023-07-31T09:13:27;6.28;;;2.80;;
32501;SDS011;18952;52.516;13.460;2023-07-31T09:15:56;4.72;;;2.65;;
32501;SDS011;18952;52.516;13.460;2023-07-31T09:18:23;5.82;;;2.80;;
32501;SDS011;18952;52.516;13.460;2023-07-31T09:23:42;8.70;;;3.60;;
32501;SDS011;18952;52.516;13.460;2023-07-31T09:26:10;6.20;;;3.08;;
32501;SDS011;18952;52.516;13.460;2023-07-31T09:28:37;5.45;;;2.80;;
32501;SDS011;18952;52.516;13.460;2023-07-31T09:31:04;4.45;;;2.30;;
32501;SDS011;18952;52.516;13.460;2023-07-31T09:33:31;6.75;;;2.47;;
32501;SDS011;18952;52.516;13.460;2023-07-31T09:39:19;6.03;;;2.15;;
32501;SDS011;18952;52.516;13.460;2023-07-31T09:41:55;5.45;;;2.10;;
32501;SDS011;18952;52.516;13.460;2023-07-31T09:44:37;2.65;;;1.80;;
32501;SDS011;18952;52.516;13.460;2023-07-31T09:47:04;4.88;;;1.90;;
32501;SDS011;18952;52.516;13.460;2023-07-31T09:49:31;4.10;;;2.10;;
32501;SDS011;18952;52.516;13.460;2023-07-31T09:51:58;2.00;;;1.40;;
32501;SDS011;18952;52.516;13.460;2023-07-31T09:54:25;2.95;;;1.70;;
32501;SDS011;18952;52.516;13.460;2023-07-31T09:56:52;2.65;;;1.60;;
32501;SDS011;18952;52.516;13.460;2023-07-31T09:59:22;3.22;;;1.77;;
32501;SDS011;18952;52.516;13.460;2023-07-31T10:01:50;2.35;;;1.67;;
32501;SDS011;18952;52.516;13.460;2023-07-31T10:04:18;1.52;;;1.42;;
32501;SDS011;18952;52.516;13.460;2023-07-31T10:06:52;2.08;;;1.67;;
32501;SDS011;18952;52.516;13.460;2023-07-31T10:09:20;3.38;;;1.92;;
32501;SDS011;18952;52.516;13.460;2023-07-31T10:11:53;3.55;;;2.30;;
32501;SDS011;18952;52.516;13.460;2023-07-31T10:14:25;3.58;;;2.40;;
32501;SDS011;18952;52.516;13.460;2023-07-31T10:16:53;6.57;;;3.17;;
32501;SDS011;18952;52.516;13.460;2023-07-31T10:19:21;6.95;;;3.17;;
32501;SDS011;18952;52.516;13.460;2023-07-31T10:21:48;5.38;;;3.10;;
32501;SDS011;18952;52.516;13.460;2023-07-31T10:24:15;5.85;;;3.55;;
32501;SDS011;18952;52.516;13.460;2023-07-31T10:26:43;8.45;;;3.83;;
32501;SDS011;18952;52.516;13.460;2023-07-31T10:29:13;7.55;;;4.00;;
32501;SDS011;18952;52.516;13.460;2023-07-31T10:31:42;7.95;;;4.20;;
32501;SDS011;18952;52.516;13.460;2023-07-31T10:34:09;9.50;;;5.15;;
32501;SDS011;18952;52.516;13.460;2023-07-31T10:36:36;8.27;;;4.15;;
32501;SDS011;18952;52.516;13.460;2023-07-31T10:39:03;10.50;;;4.35;;
32501;SDS011;18952;52.516;13.460;2023-07-31T10:41:31;8.20;;;4.43;;
32501;SDS011;18952;52.516;13.460;2023-07-31T10:43:58;7.22;;;4.53;;
32501;SDS011;18952;52.516;13.460;2023-07-31T10:46:28;6.97;;;4.45;;
32501;SDS011;18952;52.516;13.460;2023-07-31T10:48:58;10.45;;;4.68;;
32501;SDS011;18952;52.516;13.460;2023-07-31T10:51:33;7.72;;;4.43;;
32501;SDS011;18952;52.516;13.460;2023-07-31T10:54:13;9.52;;;4.53;;
32501;SDS011;18952;52.516;13.460;2023-07-31T10:56:45;10.20;;;4.20;;
32501;SDS011;18952;52.516;13.460;2023-07-31T10:59:13;7.25;;;3.90;;
32501;SDS011;18952;52.516;13.460;2023-07-31T11:01:53;6.63;;;3.88;;
32501;SDS011;18952;52.516;13.460;2023-07-31T11:04:26;9.93;;;4.07;;
32501;SDS011;18952;52.516;13.460;2023-07-31T11:07:01;8.65;;;4.13;;
32501;SDS011;18952;52.516;13.460;2023-07-31T11:09:29;9.35;;;4.97;;
32501;SDS011;18952;52.516;13.460;2023-07-31T11:11:56;11.77;;;4.70;;
32501;SDS011;18952;52.516;13.460;2023-07-31T11:14:23;8.75;;;4.53;;
32501;SDS011;18952;52.516;13.460;2023-07-31T11:16:50;6.68;;;4.05;;
32501;SDS011;18952;52.516;13.460;2023-07-31T11:19:24;8.55;;;4.65;;
32501;SDS011;18952;52.516;13.460;2023-07-31T11:21:54;7.00;;;4.25;;
32501;SDS011;18952;52.516;13.460;2023-07-31T11:24:21;7.40;;;3.97;;
32501;SDS011;18952;52.516;13.460;2023-07-31T11:26:56;9.43;;;4.07;;
32501;SDS011;18952;52.516;13.460;2023-07-31T11:29:25;7.15;;;4.10;;
32501;SDS011;18952;52.516;13.460;2023-07-31T11:31:53;9.93;;;3.70;;
32501;SDS011;18952;52.516;13.460;2023-07-31T11:34:20;8.55;;;3.92;;
32501;SDS011;18952;52.516;13.460;2023-07-31T11:36:53;10.48;;;3.92;;
32501;SDS011;18952;52.516;13.460;2023-07-31T11:39:20;5.75;;;3.83;;
32501;SDS011;18952;52.516;13.460;2023-07-31T11:41:47;6.18;;;3.80;;
32501;SDS011;18952;52.516;13.460;2023-07-31T11:44:14;11.73;;;3.53;;
32501;SDS011;18952;52.516;13.460;2023-07-31T11:46:52;8.65;;;3.72;;
32501;SDS011;18952;52.516;13.460;2023-07-31T11:49:22;8.60;;;4.00;;
32501;SDS011;18952;52.516;13.460;2023-07-31T11:51:49;4.60;;;3.55;;
32501;SDS011;18952;52.516;13.460;2023-07-31T11:54:16;7.18;;;4.05;;
32501;SDS011;18952;52.516;13.460;2023-07-31T11:56:43;5.20;;;2.97;;
32501;SDS011;18952;52.516;13.460;2023-07-31T11:59:10;4.72;;;3.45;;
32501;SDS011;18952;52.516;13.460;2023-07-31T12:01:37;5.50;;;3.30;;
32501;SDS011;18952;52.516;13.460;2023-07-31T12:04:04;4.95;;;3.47;;
32501;SDS011;18952;52.516;13.460;2023-07-31T12:06:35;9.43;;;3.75;;
32501;SDS011;18952;52.516;13.460;2023-07-31T12:09:03;9.38;;;4.03;;
32501;SDS011;18952;52.516;13.460;2023-07-31T12:11:31;6.45;;;3.65;;
32501;SDS011;18952;52.516;13.460;2023-07-31T12:14:19;6.53;;;3.92;;
32501;SDS011;18952;52.516;13.460;2023-07-31T12:16:57;8.75;;;3.75;;
32501;SDS011;18952;52.516;13.460;2023-07-31T12:19:27;10.65;;;4.10;;
32501;SDS011;18952;52.516;13.460;2023-07-31T12:21:54;5.40;;;3.65;;
32501;SDS011;18952;52.516;13.460;2023-07-31T12:24:25;5.57;;;3.08;;
32501;SDS011;18952;52.516;13.460;2023-07-31T12:26:53;6.25;;;3.60;;
32501;SDS011;18952;52.516;13.460;2023-07-31T12:29:19;4.88;;;3.25;;
32501;SDS011;18952;52.516;13.460;2023-07-31T12:31:46;8.80;;;3.50;;
32501;SDS011;18952;52.516;13.460;2023-07-31T12:34:17;10.38;;;3.55;;
32501;SDS011;18952;52.516;13.460;2023-07-31T12:36:45;6.97;;;3.35;;
32501;SDS011;18952;52.516;13.460;2023-07-31T12:39:12;6.35;;;3.15;;
32501;SDS011;18952;52.516;13.460;2023-07-31T12:41:39;10.80;;;3.78;;
32501;SDS011;18952;52.516;13.460;2023-07-31T12:44:06;5.15;;;3.17;;
32501;SDS011;18952;52.516;13.460;2023-07-31T12:46:33;7.75;;;3.17;;
32501;SDS011;18952;52.516;13.460;2023-07-31T12:48:59;14.25;;;4.00;;
32501;SDS011;18952;52.516;13.460;2023-07-31T12:51:26;7.03;;;3.47;;
32501;SDS011;18952;52.516;13.460;2023-07-31T12:53:53;6.03;;;3.50;;
32501;SDS011;18952;52.516;13.460;2023-07-31T12:56:20;7.40;;;3.50;;
32501;SDS011;18952;52.516;13.460;2023-07-31T12:58:47;4.72;;;3.00;;
32501;SDS011;18952;52.516;13.460;2023-07-31T13:01:14;7.85;;;3.60;;
32501;SDS011;18952;52.516;13.460;2023-07-31T13:03:41;5.68;;;3.00;;
32501;SDS011;18952;52.516;13.460;2023-07-31T13:06:07;3.95;;;2.67;;
32501;SDS011;18952;52.516;13.460;2023-07-31T13:08:34;6.05;;;3.08;;
32501;SDS011;18952;52.516;13.460;2023-07-31T13:11:01;4.20;;;2.30;;
32501;SDS011;18952;52.516;13.460;2023-07-31T13:13:28;6.32;;;2.13;;
32501;SDS011;18952;52.516;13.460;2023-07-31T13:15:56;5.55;;;2.50;;
32501;SDS011;18952;52.516;13.460;2023-07-31T13:18:23;3.63;;;2.47;;
32501;SDS011;18952;52.516;13.460;2023-07-31T13:20:50;4.75;;;2.28;;
32501;SDS011;18952;52.516;13.460;2023-07-31T13:23:16;5.57;;;2.60;;
32501;SDS011;18952;52.516;13.460;2023-07-31T13:25:43;4.88;;;2.55;;
32501;SDS011;18952;52.516;13.460;2023-07-31T13:28:10;3.58;;;2.38;;
32501;SDS011;18952;52.516;13.460;2023-07-31T13:30:37;7.10;;;2.67;;
32501;SDS011;18952;52.516;13.460;2023-07-31T13:33:03;8.85;;;2.97;;
32501;SDS011;18952;52.516;13.460;2023-07-31T13:35:30;4.18;;;2.60;;
32501;SDS011;18952;52.516;13.460;2023-07-31T13:37:57;9.48;;;3.33;;
32501;SDS011;18952;52.516;13.460;2023-07-31T13:40:24;7.32;;;3.00;;
32501;SDS011;18952;52.516;13.460;2023-07-31T13:42:51;4.88;;;3.00;;
32501;SDS011;18952;52.516;13.460;2023-07-31T13:45:18;5.45;;;3.20;;
32501;SDS011;18952;52.516;13.460;2023-07-31T13:47:44;5.63;;;3.60;;
32501;SDS011;18952;52.516;13.460;2023-07-31T13:50:11;7.43;;;3.88;;
32501;SDS011;18952;52.516;13.460;2023-07-31T13:52:38;6.57;;;3.92;;
32501;SDS011;18952;52.516;13.460;2023-07-31T13:55:05;8.25;;;3.72;;
32501;SDS011;18952;52.516;13.460;2023-07-31T13:57:32;10.85;;;4.55;;
32501;SDS011;18952;52.516;13.460;2023-07-31T13:59:59;6.82;;;3.55;;
32501;SDS011;18952;52.516;13.460;2023-07-31T14:02:26;11.15;;;4.40;;
32501;SDS011;18952;52.516;13.460;2023-07-31T14:04:52;9.05;;;3.80;;
32501;SDS011;18952;52.516;13.460;2023-07-31T14:07:19;7.45;;;4.18;;
32501;SDS011;18952;52.516;13.460;2023-07-31T14:09:46;5.85;;;3.40;;
32501;SDS011;18952;52.516;13.460;2023-07-31T14:12:13;6.43;;;3.72;;
32501;SDS011;18952;52.516;13.460;2023-07-31T14:14:57;7.63;;;3.90;;
32501;SDS011;18952;52.516;13.460;2023-07-31T14:17:24;5.57;;;3.58;;
32501;SDS011;18952;52.516;13.460;2023-07-31T14:19:51;7.85;;;3.95;;
32501;SDS011;18952;52.516;13.460;2023-07-31T14:22:27;7.45;;;3.80;;
32501;SDS011;18952;52.516;13.460;2023-07-31T14:24:57;8.98;;;3.72;;
32501;SDS011;18952;52.516;13.460;2023-07-31T14:27:23;7.80;;;4.10;;
32501;SDS011;18952;52.516;13.460;2023-07-31T14:29:50;7.30;;;3.75;;
32501;SDS011;18952;52.516;13.460;2023-07-31T14:32:17;9.23;;;3.95;;
32501;SDS011;18952;52.516;13.460;2023-07-31T14:34:44;6.60;;;3.78;;
32501;SDS011;18952;52.516;13.460;2023-07-31T14:37:10;8.73;;;4.00;;
32501;SDS011;18952;52.516;13.460;2023-07-31T14:39:37;6.22;;;3.65;;
32501;SDS011;18952;52.516;13.460;2023-07-31T14:42:06;6.60;;;4.20;;
32501;SDS011;18952;52.516;13.460;2023-07-31T14:44:33;5.35;;;3.40;;
32501;SDS011;18952;52.516;13.460;2023-07-31T14:47:00;8.63;;;3.47;;
32501;SDS011;18952;52.516;13.460;2023-07-31T14:49:27;9.35;;;4.45;;
32501;SDS011;18952;52.516;13.460;2023-07-31T14:51:54;10.02;;;3.72;;
32501;SDS011;18952;52.516;13.460;2023-07-31T14:54:21;4.97;;;3.03;;
32501;SDS011;18952;52.516;13.460;2023-07-31T14:56:48;4.40;;;3.13;;
32501;SDS011;18952;52.516;13.460;2023-07-31T14:59:14;7.03;;;3.38;;
32501;SDS011;18952;52.516;13.460;2023-07-31T15:01:41;6.32;;;3.35;;
32501;SDS011;18952;52.516;13.460;2023-07-31T15:04:08;4.78;;;3.63;;
32501;SDS011;18952;52.516;13.460;2023-07-31T15:06:35;6.57;;;3.90;;
32501;SDS011;18952;52.516;13.460;2023-07-31T15:09:02;7.50;;;3.90;;
32501;SDS011;18952;52.516;13.460;2023-07-31T15:11:28;9.45;;;3.63;;
32501;SDS011;18952;52.516;13.460;2023-07-31T15:13:55;6.80;;;3.97;;
32501;SDS011;18952;52.516;13.460;2023-07-31T15:16:22;5.07;;;3.45;;
32501;SDS011;18952;52.516;13.460;2023-07-31T15:18:49;6.28;;;3.78;;
32501;SDS011;18952;52.516;13.460;2023-07-31T15:21:16;7.25;;;4.35;;
32501;SDS011;18952;52.516;13.460;2023-07-31T15:23:43;9.10;;;3.80;;
32501;SDS011;18952;52.516;13.460;2023-07-31T15:26:09;6.20;;;3.30;;
32501;SDS011;18952;52.516;13.460;2023-07-31T15:28:36;7.35;;;3.63;;
32501;SDS011;18952;52.516;13.460;2023-07-31T15:31:03;6.13;;;3.42;;
32501;SDS011;18952;52.516;13.460;2023-07-31T15:33:30;7.13;;;3.83;;
32501;SDS011;18952;52.516;13.460;2023-07-31T15:35:57;7.47;;;4.65;;
32501;SDS011;18952;52.516;13.460;2023-07-31T15:38:24;21.50;;;3.85;;
32501;SDS011;18952;52.516;13.460;2023-07-31T15:40:51;6.30;;;3.83;;
32501;SDS011;18952;52.516;13.460;2023-07-31T15:43:18;7.10;;;3.88;;
32501;SDS011;18952;52.516;13.460;2023-07-31T15:45:46;6.80;;;4.00;;
32501;SDS011;18952;52.516;13.460;2023-07-31T15:48:13;7.80;;;4.78;;
32501;SDS011;18952;52.516;13.460;2023-07-31T15:50:40;6.18;;;3.80;;
32501;SDS011;18952;52.516;13.460;2023-07-31T15:53:07;9.23;;;4.32;;
32501;SDS011;18952;52.516;13.460;2023-07-31T15:55:33;5.85;;;4.05;;
32501;SDS011;18952;52.516;13.460;2023-07-31T15:58:00;7.85;;;4.32;;
32501;SDS011;18952;52.516;13.460;2023-07-31T16:00:27;11.52;;;4.07;;
32501;SDS011;18952;52.516;13.460;2023-07-31T16:02:54;7.07;;;4.38;;
32501;SDS011;18952;52.516;13.460;2023-07-31T16:05:21;9.98;;;4.55;;
32501;SDS011;18952;52.516;13.460;2023-07-31T16:07:47;10.82;;;5.45;;
32501;SDS011;18952;52.516;13.460;2023-07-31T16:10:14;8.45;;;5.20;;
32501;SDS011;18952;52.516;13.460;2023-07-31T16:12:41;8.85;;;5.65;;
32501;SDS011;18952;52.516;13.460;2023-07-31T16:15:08;8.13;;;5.15;;
32501;SDS011;18952;52.516;13.460;2023-07-31T16:17:35;8.68;;;5.03;;
32501;SDS011;18952;52.516;13.460;2023-07-31T16:20:02;8.63;;;5.80;;
32501;SDS011;18952;52.516;13.460;2023-07-31T16:22:29;9.82;;;5.68;;
32501;SDS011;18952;52.516;13.460;2023-07-31T16:24:55;6.95;;;4.53;;
32501;SDS011;18952;52.516;13.460;2023-07-31T16:27:22;8.95;;;6.03;;
32501;SDS011;18952;52.516;13.460;2023-07-31T16:29:49;11.23;;;5.20;;
32501;SDS011;18952;52.516;13.460;2023-07-31T16:32:17;7.63;;;4.25;;
32501;SDS011;18952;52.516;13.460;2023-07-31T16:34:43;7.20;;;3.88;;
32501;SDS011;18952;52.516;13.460;2023-07-31T16:37:10;8.30;;;4.50;;
32501;SDS011;18952;52.516;13.460;2023-07-31T16:39:37;6.38;;;3.67;;
32501;SDS011;18952;52.516;13.460;2023-07-31T16:42:04;13.90;;;4.47;;
32501;SDS011;18952;52.516;13.460;2023-07-31T16:44:32;7.05;;;4.13;;
32501;SDS011;18952;52.516;13.460;2023-07-31T16:46:59;10.75;;;4.45;;
32501;SDS011;18952;52.516;13.460;2023-07-31T16:49:25;7.05;;;3.63;;
32501;SDS011;18952;52.516;13.460;2023-07-31T16:51:52;8.30;;;4.03;;
32501;SDS011;18952;52.516;13.460;2023-07-31T16:54:19;5.60;;;3.47;;
32501;SDS011;18952;52.516;13.460;2023-07-31T16:56:46;8.98;;;3.88;;
32501;SDS011;18952;52.516;13.460;2023-07-31T16:59:25;7.93;;;3.90;;
32501;SDS011;18952;52.516;13.460;2023-07-31T17:01:53;7.90;;;3.85;;
32501;SDS011;18952;52.516;13.460;2023-07-31T17:04:22;5.80;;;3.60;;
32501;SDS011;18952;52.516;13.460;2023-07-31T17:06:49;7.38;;;3.90;;
32501;SDS011;18952;52.516;13.460;2023-07-31T17:09:16;7.00;;;3.65;;
32501;SDS011;18952;52.516;13.460;2023-07-31T17:11:43;6.53;;;3.72;;
32501;SDS011;18952;52.516;13.460;2023-07-31T17:14:09;7.93;;;3.78;;
32501;SDS011;18952;52.516;13.460;2023-07-31T17:16:40;10.90;;;4.68;;
32501;SDS011;18952;52.516;13.460;2023-07-31T17:19:07;7.50;;;3.90;;
32501;SDS011;18952;52.516;13.460;2023-07-31T17:21:33;4.55;;;3.40;;
32501;SDS011;18952;52.516;13.460;2023-07-31T17:24:00;5.57;;;3.63;;
32501;SDS011;18952;52.516;13.460;2023-07-31T17:26:27;6.95;;;3.70;;
32501;SDS011;18952;52.516;13.460;2023-07-31T17:28:54;7.47;;;3.90;;
32501;SDS011;18952;52.516;13.460;2023-07-31T17:31:20;10.00;;;3.90;;
32501;SDS011;18952;52.516;13.460;2023-07-31T17:33:47;6.75;;;3.60;;
32501;SDS011;18952;52.516;13.460;2023-07-31T17:36:14;6.97;;;3.38;;
32501;SDS011;18952;52.516;13.460;2023-07-31T17:38:41;9.00;;;3.20;;
32501;SDS011;18952;52.516;13.460;2023-07-31T17:41:08;5.82;;;3.05;;
32501;SDS011;18952;52.516;13.460;2023-07-31T17:43:34;10.93;;;3.28;;
32501;SDS011;18952;52.516;13.460;2023-07-31T17:46:02;7.53;;;3.83;;
32501;SDS011;18952;52.516;13.460;2023-07-31T17:48:31;12.80;;;3.60;;
32501;SDS011;18952;52.516;13.460;2023-07-31T17:50:58;6.63;;;3.53;;
32501;SDS011;18952;52.516;13.460;2023-07-31T17:53:25;7.40;;;3.75;;
32501;SDS011;18952;52.516;13.460;2023-07-31T17:55:52;7.70;;;3.70;;
32501;SDS011;18952;52.516;13.460;2023-07-31T17:58:19;7.93;;;4.10;;
32501;SDS011;18952;52.516;13.460;2023-07-31T18:00:45;5.30;;;2.88;;
32501;SDS011;18952;52.516;13.460;2023-07-31T18:03:12;5.25;;;3.20;;
32501;SDS011;18952;52.516;13.460;2023-07-31T18:05:39;5.50;;;3.55;;
32501;SDS011;18952;52.516;13.460;2023-07-31T18:08:06;5.55;;;3.70;;
32501;SDS011;18952;52.516;13.460;2023-07-31T18:10:33;6.63;;;3.53;;
32501;SDS011;18952;52.516;13.460;2023-07-31T18:13:00;5.47;;;3.40;;
32501;SDS011;18952;52.516;13.460;2023-07-31T18:15:27;5.78;;;3.65;;
32501;SDS011;18952;52.516;13.460;2023-07-31T18:17:53;6.85;;;4.45;;
32501;SDS011;18952;52.516;13.460;2023-07-31T18:20:20;7.00;;;4.20;;
32501;SDS011;18952;52.516;13.460;2023-07-31T18:22:47;11.07;;;5.18;;
32501;SDS011;18952;52.516;13.460;2023-07-31T18:25:14;8.00;;;4.68;;
32501;SDS011;18952;52.516;13.460;2023-07-31T18:27:41;8.60;;;4.63;;
32501;SDS011;18952;52.516;13.460;2023-07-31T18:30:08;7.78;;;4.32;;
32501;SDS011;18952;52.516;13.460;2023-07-31T18:32:35;6.80;;;3.65;;
32501;SDS011;18952;52.516;13.460;2023-07-31T18:35:02;6.68;;;3.85;;
32501;SDS011;18952;52.516;13.460;2023-07-31T18:37:29;9.95;;;3.58;;
32501;SDS011;18952;52.516;13.460;2023-07-31T18:39:55;6.32;;;3.67;;
32501;SDS011;18952;52.516;13.460;2023-07-31T18:42:22;10.27;;;4.25;;
32501;SDS011;18952;52.516;13.460;2023-07-31T18:44:49;12.18;;;4.70;;
32501;SDS011;18952;52.516;13.460;2023-07-31T18:47:16;10.35;;;4.70;;
32501;SDS011;18952;52.516;13.460;2023-07-31T18:49:42;7.65;;;4.40;;
32501;SDS011;18952;52.516;13.460;2023-07-31T18:52:09;9.40;;;4.20;;
32501;SDS011;18952;52.516;13.460;2023-07-31T18:54:36;7.45;;;3.88;;
32501;SDS011;18952;52.516;13.460;2023-07-31T18:57:03;4.97;;;3.97;;
32501;SDS011;18952;52.516;13.460;2023-07-31T18:59:30;7.45;;;3.72;;
32501;SDS011;18952;52.516;13.460;2023-07-31T19:01:56;7.65;;;3.53;;
32501;SDS011;18952;52.516;13.460;2023-07-31T19:04:23;6.82;;;4.00;;
32501;SDS011;18952;52.516;13.460;2023-07-31T19:06:51;7.18;;;3.75;;
32501;SDS011;18952;52.516;13.460;2023-07-31T19:09:26;6.07;;;3.65;;
32501;SDS011;18952;52.516;13.460;2023-07-31T19:11:57;7.20;;;4.45;;
32501;SDS011;18952;52.516;13.460;2023-07-31T19:14:24;8.02;;;4.50;;
32501;SDS011;18952;52.516;13.460;2023-07-31T19:16:51;7.50;;;4.80;;
32501;SDS011;18952;52.516;13.460;2023-07-31T19:19:18;11.38;;;5.10;;
32501;SDS011;18952;52.516;13.460;2023-07-31T19:21:44;9.60;;;4.95;;
32501;SDS011;18952;52.516;13.460;2023-07-31T19:24:11;11.23;;;5.25;;
32501;SDS011;18952;52.516;13.460;2023-07-31T19:26:38;7.20;;;4.72;;
32501;SDS011;18952;52.516;13.460;2023-07-31T19:29:05;7.32;;;5.38;;
32501;SDS011;18952;52.516;13.460;2023-07-31T19:31:32;9.40;;;5.40;;
32501;SDS011;18952;52.516;13.460;2023-07-31T19:33:59;7.28;;;5.20;;
32501;SDS011;18952;52.516;13.460;2023-07-31T19:36:26;8.05;;;5.43;;
32501;SDS011;18952;52.516;13.460;2023-07-31T19:38:52;8.48;;;5.50;;
32501;SDS011;18952;52.516;13.460;2023-07-31T19:41:19;8.95;;;5.22;;
32501;SDS011;18952;52.516;13.460;2023-07-31T19:43:46;7.55;;;5.20;;
32501;SDS011;18952;52.516;13.460;2023-07-31T19:46:13;7.30;;;5.30;;
32501;SDS011;18952;52.516;13.460;2023-07-31T19:48:40;10.43;;;5.10;;
32501;SDS011;18952;52.516;13.460;2023-07-31T19:51:07;7.40;;;4.88;;
32501;SDS011;18952;52.516;13.460;2023-07-31T19:53:33;7.93;;;5.30;;
32501;SDS011;18952;52.516;13.460;2023-07-31T19:56:00;11.13;;;4.93;;
32501;SDS011;18952;52.516;13.460;2023-07-31T19:58:27;13.77;;;5.55;;
32501;SDS011;18952;52.516;13.460;2023-07-31T20:00:54;15.43;;;5.72;;
32501;SDS011;18952;52.516;13.460;2023-07-31T20:03:21;12.70;;;5.45;;
32501;SDS011;18952;52.516;13.460;2023-07-31T20:05:47;8.73;;;5.18;;
32501;SDS011;18952;52.516;13.460;2023-07-31T20:08:16;8.15;;;5.22;;
32501;SDS011;18952;52.516;13.460;2023-07-31T20:10:43;12.52;;;5.13;;
32501;SDS011;18952;52.516;13.460;2023-07-31T20:13:10;7.80;;;4.93;;
32501;SDS011;18952;52.516;13.460;2023-07-31T20:15:37;7.88;;;5.07;;
32501;SDS011;18952;52.516;13.460;2023-07-31T20:18:07;11.57;;;5.18;;
32501;SDS011;18952;52.516;13.460;2023-07-31T20:20:34;9.93;;;5.70;;
32501;SDS011;18952;52.516;13.460;2023-07-31T20:23:01;9.18;;;5.75;;
32501;SDS011;18952;52.516;13.460;2023-07-31T20:25:30;8.82;;;5.53;;
32501;SDS011;18952;52.516;13.460;2023-07-31T20:27:57;12.10;;;5.90;;
32501;SDS011;18952;52.516;13.460;2023-07-31T20:30:24;9.27;;;5.72;;
32501;SDS011;18952;52.516;13.460;2023-07-31T20:32:51;11.18;;;5.05;;
32501;SDS011;18952;52.516;13.460;2023-07-31T20:35:18;11.73;;;5.72;;
32501;SDS011;18952;52.516;13.460;2023-07-31T20:37:44;7.45;;;5.22;;
32501;SDS011;18952;52.516;13.460;2023-07-31T20:40:11;10.38;;;6.15;;
32501;SDS011;18952;52.516;13.460;2023-07-31T20:42:38;8.82;;;5.28;;
32501;SDS011;18952;52.516;13.460;2023-07-31T20:45:05;9.02;;;5.70;;